createdAt,value
2023-03-29T00:02:56.522Z,99.90
2023-03-29T00:07:01.331Z,99.90
2023-03-29T00:11:03.826Z,99.90
2023-03-29T00:15:08.422Z,99.90
2023-03-29T00:19:13.097Z,99.90
2023-03-29T00:23:15.876Z,99.90
2023-03-29T00:27:17.539Z,99.90
2023-03-29T00:31:20.645Z,99.90
2023-03-29T00:35:26.167Z,99.90
2023-03-29T00:39:28.667Z,99.90
2023-03-29T00:43:34.167Z,99.90
2023-03-29T00:47:48.350Z,99.90
2023-03-29T00:51:53.346Z,99.90
2023-03-29T00:56:06.638Z,99.90
2023-03-29T01:00:14.764Z,99.90
2023-03-29T01:04:28.854Z,99.90
2023-03-29T01:08:35.034Z,99.90
2023-03-29T01:12:41.082Z,99.90
2023-03-29T01:16:43.650Z,99.90
2023-03-29T01:21:07.700Z,99.90
2023-03-29T01:25:16.720Z,99.90
2023-03-29T01:29:26.188Z,99.90
2023-03-29T01:33:34.935Z,99.90
2023-03-29T01:37:42.947Z,99.90
2023-03-29T01:42:04.148Z,99.90
2023-03-29T01:46:35.329Z,99.90
2023-03-29T01:50:51.229Z,99.90
2023-03-29T01:54:57.279Z,99.90
2023-03-29T01:59:06.940Z,99.90
2023-03-29T02:03:14.350Z,99.90
2023-03-29T02:07:18.856Z,99.90
2023-03-29T02:11:23.052Z,99.90
2023-03-29T02:15:24.726Z,99.90
2023-03-29T02:19:27.621Z,99.90
2023-03-29T02:23:39.125Z,99.90
2023-03-29T02:27:41.678Z,99.90
2023-03-29T02:31:47.253Z,99.90
2023-03-29T02:35:56.145Z,99.90
2023-03-29T02:39:59.311Z,99.90
2023-03-29T02:44:03.922Z,99.90
2023-03-29T02:48:09.385Z,99.90
2023-03-29T02:52:15.932Z,99.90
2023-03-29T02:56:19.939Z,99.90
2023-03-29T03:00:22.948Z,99.90
2023-03-29T03:04:25.017Z,99.90
2023-03-29T03:08:26.671Z,99.90
2023-03-29T03:12:28.351Z,99.90
2023-03-29T03:16:30.772Z,99.90
2023-03-29T03:20:32.837Z,99.90
2023-03-29T03:24:35.346Z,99.90
2023-03-29T03:28:37.085Z,99.90
2023-03-29T03:32:39.363Z,99.90
2023-03-29T03:36:41.264Z,99.90
2023-03-29T03:40:43.504Z,99.90
2023-03-29T03:44:45.642Z,99.90
2023-03-29T03:48:47.702Z,99.90
2023-03-29T03:52:50.055Z,99.90
2023-03-29T03:56:51.850Z,99.90
2023-03-29T04:00:54.497Z,99.90
2023-03-29T04:04:56.061Z,99.90
2023-03-29T04:08:57.798Z,99.90
2023-03-29T04:13:01.846Z,99.90
2023-03-29T04:17:03.798Z,99.90
2023-03-29T04:21:06.112Z,99.90
2023-03-29T04:25:09.972Z,99.90
2023-03-29T04:29:11.784Z,99.90
2023-03-29T04:33:13.156Z,99.90
2023-03-29T04:37:17.175Z,99.90
2023-03-29T04:41:19.866Z,99.90
2023-03-29T04:45:21.808Z,99.90
2023-03-29T04:49:26.018Z,99.90
2023-03-29T04:53:27.645Z,99.90
2023-03-29T04:57:30.629Z,99.90
2023-03-29T05:01:32.267Z,99.90
2023-03-29T05:05:33.716Z,99.90
2023-03-29T05:09:35.584Z,99.90
2023-03-29T05:13:37.777Z,99.90
2023-03-29T05:17:40.584Z,99.90
2023-03-29T05:21:44.393Z,99.90
2023-03-29T05:25:48.554Z,99.90
2023-03-29T05:29:49.942Z,99.90
2023-03-29T05:33:52.066Z,99.90
2023-03-29T05:37:53.239Z,99.90
2023-03-29T05:41:54.498Z,99.90
2023-03-29T05:45:56.010Z,99.90
2023-03-29T05:49:57.350Z,99.90
2023-03-29T05:53:58.517Z,99.90
2023-03-29T05:58:00.514Z,99.90
2023-03-29T06:02:03.585Z,99.90
2023-03-29T06:06:05.163Z,99.90
2023-03-29T06:10:08.961Z,99.90
2023-03-29T06:14:10.156Z,99.90
2023-03-29T06:18:11.974Z,99.90
2023-03-29T06:22:14.810Z,99.90
2023-03-29T06:26:17.121Z,99.90
2023-03-29T06:30:18.633Z,99.90
2023-03-29T06:34:21.137Z,99.90
2023-03-29T06:38:22.305Z,99.90
2023-03-29T06:42:23.474Z,99.90
2023-03-29T06:46:24.799Z,99.90
2023-03-29T06:50:26.672Z,99.90
2023-03-29T06:54:27.869Z,99.90
2023-03-29T06:58:29.019Z,99.90
2023-03-29T07:02:31.212Z,99.90
2023-03-29T07:06:33.163Z,99.90
2023-03-29T07:10:41.966Z,99.90
2023-03-29T07:14:45.167Z,99.90
2023-03-29T07:18:46.501Z,99.90
2023-03-29T07:22:50.487Z,99.90
2023-03-29T07:27:03.311Z,99.90
2023-03-29T07:31:09.939Z,99.90
2023-03-29T07:35:13.154Z,99.90
2023-03-29T07:39:17.141Z,99.90
2023-03-29T07:43:19.117Z,99.90
2023-03-29T07:47:20.726Z,99.90
2023-03-29T07:51:22.518Z,99.90
2023-03-29T07:55:23.654Z,99.90
2023-03-29T07:59:27.134Z,99.90
2023-03-29T08:03:28.590Z,99.90
2023-03-29T08:07:30.372Z,99.90
2023-03-29T08:11:33.295Z,99.90
2023-03-29T08:15:37.444Z,99.90
2023-03-29T08:19:38.607Z,99.90
2023-03-29T08:23:40.358Z,99.90
2023-03-29T08:27:42.194Z,99.90
2023-03-29T08:31:43.515Z,99.90
2023-03-29T08:35:44.684Z,99.90
2023-03-29T08:39:46.127Z,99.90
2023-03-29T08:44:11.046Z,99.90
2023-03-29T08:48:25.319Z,99.90
2023-03-29T08:52:33.676Z,99.90
2023-03-29T08:56:37.603Z,99.90
2023-03-29T09:00:48.597Z,99.90
2023-03-29T09:04:53.008Z,99.90
2023-03-29T09:08:54.432Z,99.90
2023-03-29T09:13:20.155Z,99.90
2023-03-29T09:17:49.048Z,99.90
2023-03-29T09:21:56.398Z,97.10
2023-03-29T09:26:07.557Z,91.80
2023-03-29T09:30:16.536Z,94.30
2023-03-29T09:34:23.409Z,92.40
2023-03-29T09:38:25.445Z,95.10
2023-03-29T09:42:29.462Z,95.40
2023-03-29T09:46:34.969Z,97.70
2023-03-29T09:50:40.253Z,98.30
2023-03-29T09:54:41.733Z,98.40
2023-03-29T09:58:46.281Z,99.90
2023-03-29T10:02:54.599Z,98.40
2023-03-29T10:06:58.008Z,99.10
2023-03-29T10:11:01.214Z,98.40
2023-03-29T10:15:19.638Z,99.10
2023-03-29T10:19:31.105Z,99.90
2023-03-29T10:23:35.700Z,99.90
2023-03-29T10:27:40.557Z,98.30
2023-03-29T10:31:42.638Z,99.90
2023-03-29T10:35:46.019Z,98.10
2023-03-29T10:39:48.162Z,97.80
2023-03-29T10:43:51.106Z,97.10
2023-03-29T10:47:55.357Z,96.60
2023-03-29T10:51:56.711Z,97.70
2023-03-29T10:56:29.147Z,98.00
2023-03-29T11:00:51.327Z,94.60
2023-03-29T11:05:00.016Z,95.20
2023-03-29T11:09:17.129Z,93.20
2023-03-29T11:13:34.350Z,94.70
2023-03-29T11:17:44.960Z,93.80
2023-03-29T11:21:52.900Z,93.80
2023-03-29T11:26:10.117Z,91.90
2023-03-29T11:30:18.134Z,91.30
2023-03-29T11:34:26.193Z,91.80
2023-03-29T11:38:54.192Z,91.80
2023-03-29T11:43:00.011Z,92.30
2023-03-29T11:47:11.158Z,93.70
2023-03-29T11:51:22.100Z,93.70
2023-03-29T11:55:38.626Z,95.20
2023-03-29T11:59:43.617Z,96.30
2023-03-29T12:03:52.016Z,95.60
2023-03-29T12:08:03.128Z,97.50
2023-03-29T12:12:14.127Z,97.60
2023-03-29T12:16:32.059Z,99.20
2023-03-29T12:20:37.023Z,95.90
2023-03-29T12:24:41.414Z,96.60
2023-03-29T12:29:21.760Z,91.00
2023-03-29T12:33:45.260Z,92.90
2023-03-29T12:38:12.011Z,95.00
2023-03-29T12:42:17.170Z,96.30
2023-03-29T12:46:25.336Z,99.90
2023-03-29T12:50:40.088Z,99.90
2023-03-29T12:54:45.385Z,99.80
2023-03-29T12:58:56.722Z,99.90
2023-03-29T13:03:07.771Z,99.70
2023-03-29T13:07:15.295Z,97.60
2023-03-29T13:11:40.810Z,96.50
2023-03-29T13:15:42.844Z,95.80
2023-03-29T13:20:04.974Z,94.60
2023-03-29T13:24:26.882Z,96.40
2023-03-29T13:28:53.407Z,94.40
2023-03-29T13:33:13.312Z,92.50
2023-03-29T13:37:36.742Z,92.20
2023-03-29T13:41:41.775Z,91.40
2023-03-29T13:45:43.674Z,99.90
2023-03-29T13:49:50.401Z,93.10
2023-03-29T13:54:00.080Z,91.00
2023-03-29T13:58:14.541Z,86.70
2023-03-29T14:02:34.164Z,83.40
2023-03-29T14:06:37.245Z,86.10
2023-03-29T14:10:44.235Z,83.50
2023-03-29T14:14:58.272Z,86.90
2023-03-29T14:18:50.616Z,83.00
2023-03-29T14:22:52.706Z,85.10
2023-03-29T14:26:54.258Z,82.60
2023-03-29T14:30:56.035Z,83.60
2023-03-29T14:34:58.154Z,89.20
2023-03-29T14:39:06.109Z,84.90
2023-03-29T14:43:07.638Z,87.20
2023-03-29T14:47:12.622Z,85.70
2023-03-29T14:51:14.335Z,88.80
2023-03-29T14:55:17.546Z,88.50
2023-03-29T14:59:37.263Z,86.50
2023-03-29T15:03:43.228Z,89.40
2023-03-29T15:07:45.205Z,90.00
2023-03-29T15:11:54.934Z,99.90
2023-03-29T15:15:59.960Z,95.00
2023-03-29T15:20:13.987Z,90.00
2023-03-29T15:24:30.403Z,93.20
2023-03-29T15:28:34.074Z,92.80
2023-03-29T15:32:36.472Z,92.70
2023-03-29T15:36:47.186Z,94.30
2023-03-29T15:40:48.424Z,99.90
2023-03-29T15:44:55.523Z,99.90
2023-03-29T15:48:57.006Z,99.00
2023-03-29T15:53:08.667Z,97.80
2023-03-29T15:57:06.562Z,96.70
2023-03-29T16:01:15.704Z,98.40
2023-03-29T16:05:17.559Z,97.60
2023-03-29T16:09:20.673Z,98.10
2023-03-29T16:13:21.843Z,98.80
2023-03-29T16:17:23.033Z,99.90
2023-03-29T16:21:24.170Z,99.90
2023-03-29T16:25:25.426Z,99.90
2023-03-29T16:29:26.880Z,99.90
2023-03-29T16:33:28.034Z,99.90
2023-03-29T16:37:29.295Z,99.90
2023-03-29T16:41:30.976Z,99.90
2023-03-29T16:45:32.234Z,99.90
2023-03-29T16:49:33.389Z,99.90
2023-03-29T16:53:35.062Z,99.90
2023-03-29T16:57:36.255Z,99.90
2023-03-29T17:01:37.939Z,99.90
2023-03-29T17:05:41.952Z,99.90
2023-03-29T17:09:45.085Z,99.90
2023-03-29T17:13:46.277Z,99.90
2023-03-29T17:17:47.517Z,99.90
2023-03-29T17:21:48.775Z,99.90
2023-03-29T17:25:50.534Z,99.90
2023-03-29T17:29:51.703Z,99.90
2023-03-29T17:33:53.524Z,99.90
2023-03-29T17:37:55.213Z,99.90
2023-03-29T17:41:57.357Z,99.90
2023-03-29T17:45:58.807Z,99.90
2023-03-29T17:50:00.378Z,99.90
2023-03-29T17:54:01.526Z,99.90
2023-03-29T17:58:03.318Z,99.90
2023-03-29T18:02:05.103Z,99.90
2023-03-29T18:06:06.943Z,99.90
2023-03-29T18:10:08.706Z,99.90
2023-03-29T18:14:09.888Z,99.90
2023-03-29T18:18:11.022Z,99.90
2023-03-29T18:22:12.187Z,99.90
2023-03-29T18:26:15.150Z,99.90
2023-03-29T18:30:16.378Z,99.90
2023-03-29T18:34:17.535Z,99.90
2023-03-29T18:38:20.597Z,99.90
2023-03-29T18:42:21.784Z,99.90
2023-03-29T18:46:23.179Z,99.90
2023-03-29T18:50:24.293Z,99.90
2023-03-29T18:54:25.619Z,99.90
2023-03-29T18:58:27.355Z,99.90
2023-03-29T19:02:28.677Z,99.90
2023-03-29T19:06:31.108Z,99.90
2023-03-29T19:10:36.883Z,99.90
2023-03-29T19:14:38.068Z,99.90
2023-03-29T19:18:40.245Z,99.90
2023-03-29T19:22:42.292Z,99.90
2023-03-29T19:26:44.895Z,99.90
2023-03-29T19:30:46.286Z,99.90
2023-03-29T19:34:47.469Z,99.90
2023-03-29T19:38:48.635Z,99.90
2023-03-29T19:42:49.831Z,99.90
2023-03-29T19:46:51.192Z,99.90
2023-03-29T19:50:52.438Z,99.90
2023-03-29T19:54:56.095Z,99.90
2023-03-29T19:58:57.419Z,99.90
2023-03-29T20:02:59.210Z,99.90
2023-03-29T20:07:00.414Z,99.90
2023-03-29T20:11:03.554Z,99.90
2023-03-29T20:15:05.869Z,99.90
2023-03-29T20:19:07.347Z,99.90
2023-03-29T20:23:08.585Z,99.90
2023-03-29T20:27:10.589Z,99.90
2023-03-29T20:31:12.592Z,99.90
2023-03-29T20:35:14.115Z,99.90
2023-03-29T20:39:18.121Z,99.90
2023-03-29T20:43:19.495Z,99.90
2023-03-29T20:47:22.167Z,99.90
2023-03-29T20:51:25.630Z,99.90
2023-03-29T20:55:28.951Z,99.90
2023-03-29T20:59:30.249Z,99.90
2023-03-29T21:03:31.566Z,99.90
2023-03-29T21:07:33.151Z,99.90
2023-03-29T21:11:34.330Z,99.90
2023-03-29T21:15:36.213Z,99.90
2023-03-29T21:19:38.757Z,99.90
2023-03-29T21:23:41.157Z,99.90
2023-03-29T21:27:42.374Z,99.90
2023-03-29T21:31:43.790Z,99.90
2023-03-29T21:35:47.349Z,99.90
2023-03-29T21:39:48.651Z,99.90
2023-03-29T21:43:49.988Z,99.90
2023-03-29T21:47:51.269Z,99.90
2023-03-29T21:51:52.466Z,99.90
2023-03-29T21:55:53.710Z,99.90
2023-03-29T21:59:55.274Z,99.90
2023-03-29T22:03:56.527Z,99.90
2023-03-29T22:07:58.121Z,99.90
2023-03-29T22:12:00.664Z,99.90
2023-03-29T22:16:03.409Z,99.90
2023-03-29T22:20:13.950Z,99.90
2023-03-29T22:24:15.935Z,99.90
2023-03-29T22:28:17.087Z,99.90
2023-03-29T22:32:18.365Z,99.90
2023-03-29T22:36:23.251Z,99.90
2023-03-29T22:40:24.394Z,99.90
2023-03-29T22:44:26.442Z,99.90
2023-03-29T22:48:27.544Z,99.90
2023-03-29T22:52:28.725Z,99.90
2023-03-29T22:56:29.897Z,99.90
2023-03-29T23:00:31.506Z,99.90
2023-03-29T23:04:32.851Z,99.90
2023-03-29T23:08:34.609Z,99.90
2023-03-29T23:12:35.776Z,99.90
2023-03-29T23:16:36.963Z,99.90
2023-03-29T23:20:40.014Z,99.90
2023-03-29T23:24:42.776Z,99.90
2023-03-29T23:28:44.157Z,99.90
2023-03-29T23:32:46.101Z,99.90
2023-03-29T23:36:47.216Z,99.90
2023-03-29T23:40:54.342Z,99.90
2023-03-29T23:44:55.533Z,99.90
2023-03-29T23:48:57.562Z,99.90
2023-03-29T23:52:59.029Z,99.90
2023-03-29T23:57:00.438Z,99.90
